Time;durP1;ratioP1;P1;durP2;ratioP2;P2;SDS_P1;SDS_P2;PMS_P1;PMS_P2;Temp;Humidity;BMP_temperature;BMP_pressure;BME280_temperature;BME280_humidity;BME280_pressure;Samples;Min_cycle;Max_cycle;Signal;HPM_P1;HPM_P2
2021/09/15 00:00:45;;;;;;;5.87;3.80;;;;;;;14.69;92.31;101134.88;5049923;28;20028;-72
2021/09/15 00:03:10;;;;;;;9.53;4.27;;;;;;;14.73;92.01;101126.25;5032076;28;20029;-72
2021/09/15 00:15:22;;;;;;;5.80;4.32;;;;;;;14.71;91.26;101125.59;5049687;28;20568;-73
2021/09/15 00:17:48;;;;;;;8.63;4.88;;;;;;;14.78;90.67;101121.16;5031718;28;20037;-73
2021/09/15 00:20:32;;;;;;;6.70;4.10;;;;;;;14.76;91.30;101114.31;5031796;28;20105;-73
2021/09/15 00:29:23;;;;;;;7.68;4.43;;;;;;;14.81;90.84;101116.47;5048896;28;20028;-73
2021/09/15 00:39:09;;;;;;;10.20;5.05;;;;;;;14.70;91.56;101115.88;5049063;28;20505;-73
2021/09/15 00:44:57;;;;;;;11.60;4.90;;;;;;;14.62;91.53;101096.28;5049086;28;20109;-72
2021/09/15 00:47:59;;;;;;;6.05;4.57;;;;;;;14.68;91.57;101104.47;5049018;28;20056;-73
2021/09/15 00:54:05;;;;;;;5.38;4.20;;;;;;;14.67;92.51;101097.41;5048898;28;20382;-73
2021/09/15 01:03:18;;;;;;;7.03;5.63;;;;;;;14.64;91.99;101107.69;5048173;28;20043;-73
2021/09/15 01:15:11;;;;;;;9.68;5.53;;;;;;;14.71;91.40;101087.97;5048646;28;20058;-72
2021/09/15 01:18:18;;;;;;;8.43;5.38;;;;;;;14.72;91.50;101088.81;5048614;28;20056;-72
2021/09/15 01:21:13;;;;;;;10.02;5.82;;;;;;;14.73;91.64;101093.19;5035180;28;20029;-72
2021/09/15 01:28:30;;;;;;;7.93;6.00;;;;;;;14.74;92.21;101076.84;5047520;28;20041;-72
2021/09/15 01:34:17;;;;;;;9.52;5.82;;;;;;;14.72;92.02;101057.38;5048480;28;20025;-73
2021/09/15 01:37:20;;;;;;;9.40;6.10;;;;;;;14.76;91.86;101058.69;5048222;28;20152;-72
2021/09/15 01:40:23;;;;;;;13.10;6.00;;;;;;;14.72;91.82;101052.00;5048197;28;20110;-73
2021/09/15 01:52:18;;;;;;;9.75;6.13;;;;;;;14.69;91.38;101052.38;5048088;28;20110;-72
2021/09/15 01:55:20;;;;;;;11.15;6.47;;;;;;;14.72;91.54;101052.00;5047386;28;20087;-73
2021/09/15 02:08:54;;;;;;;10.20;6.47;;;;;;;14.77;92.38;101038.88;5033259;28;20052;-73
2021/09/15 02:18:16;;;;;;;10.88;6.53;;;;;;;14.65;92.01;101020.69;5046622;28;20040;-72
2021/09/15 02:21:19;;;;;;;14.07;6.60;;;;;;;14.68;92.43;101029.22;5048395;28;20051;-72
2021/09/15 02:31:03;;;;;;;11.23;7.13;;;;;;;14.74;91.85;101023.09;5046947;28;20044;-72
2021/09/15 02:36:47;;;;;;;12.63;6.20;;;;;;;14.78;91.49;101010.16;5046931;28;20040;-72
2021/09/15 02:46:45;;;;;;;15.27;7.13;;;;;;;14.66;91.69;101008.94;5047910;28;20055;-73
2021/09/15 02:55:48;;;;;;;13.13;7.65;;;;;;;14.61;92.88;100981.75;5051180;28;20051;-73
2021/09/15 02:58:56;;;;;;;13.63;6.72;;;;;;;14.61;92.94;100979.94;5033064;28;20056;-72
2021/09/15 03:01:55;;;;;;;11.48;6.10;;;;;;;14.67;92.31;100986.41;5033844;28;20739;-72
2021/09/15 03:10:56;;;;;;;13.50;7.85;;;;;;;14.68;92.29;100982.69;5050632;28;20034;-72
2021/09/15 03:14:02;;;;;;;11.60;7.80;;;;;;;14.66;92.57;100984.75;5051021;28;20511;-72
2021/09/15 03:16:54;;;;;;;10.60;7.63;;;;;;;14.62;92.16;100984.25;5033329;28;20120;-72
2021/09/15 03:20:16;;;;;;;14.88;7.65;;;;;;;14.67;92.16;100984.53;5050312;28;20106;-72
2021/09/15 03:23:37;;;;;;;13.95;8.10;;;;;;;14.69;91.74;100981.69;5050655;28;20404;-72
2021/09/15 03:26:40;;;;;;;13.63;7.65;;;;;;;14.63;91.59;100980.56;5049611;28;20060;-72
2021/09/15 03:35:12;;;;;;;11.60;8.13;;;;;;;14.55;92.44;100969.91;5049291;28;20131;-72
2021/09/15 03:37:56;;;;;;;16.02;8.05;;;;;;;14.63;92.28;100972.50;5032683;28;20103;-73
2021/09/15 03:43:44;;;;;;;13.05;7.97;;;;;;;14.61;92.65;100974.56;5050286;28;20087;-72
2021/09/15 03:46:46;;;;;;;14.45;7.30;;;;;;;14.56;92.62;100966.19;5050013;28;20059;-72
2021/09/15 03:49:49;;;;;;;11.68;7.53;;;;;;;14.55;93.35;100959.16;5050055;28;20090;-72
2021/09/15 03:58:39;;;;;;;14.18;7.97;;;;;;;14.58;92.96;100923.84;5049712;28;20108;-72
2021/09/15 04:05:04;;;;;;;12.52;8.30;;;;;;;14.53;93.07;100924.38;5048206;28;20420;-73
2021/09/15 04:07:48;;;;;;;14.35;8.75;;;;;;;14.54;94.04;100931.47;5049537;28;20040;-72
2021/09/15 04:10:32;;;;;;;19.80;10.07;;;;;;;14.56;93.90;100933.94;5031811;28;20445;-73
2021/09/15 04:13:16;;;;;;;12.10;8.90;;;;;;;14.51;94.38;100933.63;5049507;28;20059;-72
2021/09/15 04:16:00;;;;;;;15.57;8.90;;;;;;;14.54;94.28;100931.47;5032098;28;20032;-72
2021/09/15 04:22:12;;;;;;;13.88;9.68;;;;;;;14.62;93.46;100922.47;5049588;28;20058;-73
2021/09/15 04:36:21;;;;;;;16.60;9.37;;;;;;;14.50;94.81;100929.28;5048026;28;20059;-73
2021/09/15 04:39:24;;;;;;;15.30;8.85;;;;;;;14.46;95.01;100928.81;5048840;28;20056;-72
2021/09/15 04:45:31;;;;;;;16.13;9.15;;;;;;;14.49;95.00;100919.53;5049303;28;20241;-72
2021/09/15 04:48:16;;;;;;;17.83;9.77;;;;;;;14.51;94.89;100910.28;5031065;28;20025;-73
2021/09/15 04:54:22;;;;;;;12.38;8.80;;;;;;;14.50;94.65;100889.81;5047640;28;20481;-73
2021/09/15 04:57:06;;;;;;;15.75;9.38;;;;;;;14.44;94.37;100895.91;5048122;28;20912;-72
2021/09/15 05:03:49;;;;;;;16.77;9.38;;;;;;;14.40;95.32;100888.41;5048993;28;20051;-73
2021/09/15 05:10:14;;;;;;;19.45;9.35;;;;;;;14.42;95.87;100884.56;5046941;28;20041;-73
2021/09/15 05:13:17;;;;;;;14.68;9.93;;;;;;;14.37;96.23;100897.69;5048452;28;20025;-72
2021/09/15 05:19:05;;;;;;;16.50;9.77;;;;;;;14.30;96.46;100900.25;5048366;28;20473;-73
2021/09/15 05:21:49;;;;;;;16.43;9.30;;;;;;;14.28;96.14;100899.63;5014264;28;20025;-73
2021/09/15 05:24:34;;;;;;;13.18;9.15;;;;;;;14.32;95.88;100900.09;5030809;28;20064;-72
2021/09/15 05:36:51;;;;;;;19.70;10.30;;;;;;;14.31;96.71;100917.22;5048322;28;20067;-72
2021/09/15 05:39:35;;;;;;;20.27;10.32;;;;;;;14.28;97.54;100905.00;5047958;28;20443;-73
2021/09/15 05:46:01;;;;;;;18.35;11.93;;;;;;;14.41;97.84;100898.16;5046856;28;20048;-72
2021/09/15 05:49:04;;;;;;;20.65;10.50;;;;;;;14.32;97.94;100898.22;5047036;28;20466;-72
2021/09/15 05:52:06;;;;;;;25.42;11.13;;;;;;;14.41;98.00;100890.09;5047962;28;20048;-72
2021/09/15 05:55:28;;;;;;;20.55;11.57;;;;;;;14.41;98.27;100898.16;5048114;28;20103;-72
2021/09/15 05:57:56;;;;;;;;;;;;;;;14.45;98.62;100896.78;5030645;28;20103;-72
2021/09/15 06:00:21;;;;;;;;;;;;;;;14.42;97.82;100892.59;5030736;28;19916;-72
2021/09/15 06:12:42;;;;;;;18.98;11.50;;;;;;;14.58;96.86;100888.91;5046722;28;20041;-72
2021/09/15 06:21:52;;;;;;;15.50;11.00;;;;;;;14.77;96.71;100879.47;5047996;28;20051;-72
2021/09/15 06:28:16;;;;;;;22.80;12.13;;;;;;;14.96;95.24;100869.97;5047844;28;20678;-73
2021/09/15 06:34:41;;;;;;;17.95;11.75;;;;;;;15.08;93.70;100873.88;5051168;28;20052;-72
2021/09/15 06:37:25;;;;;;;23.60;12.98;;;;;;;15.11;92.79;100868.09;5051412;28;20037;-72
2021/09/15 06:39:50;;;;;;;17.40;12.10;;;;;;;15.33;91.87;100862.75;5050864;28;20048;-72
2021/09/15 06:46:15;;;;;;;16.52;11.75;;;;;;;15.77;89.59;100878.72;5051002;28;20047;-72
2021/09/15 07:06:08;;;;;;;18.00;10.93;;;;;;;15.58;92.21;100860.53;5050923;28;20143;-72
2021/09/15 07:08:34;;;;;;;17.13;11.43;;;;;;;15.41;92.09;100859.94;5032821;28;20047;-72
2021/09/15 07:14:40;;;;;;;21.10;11.60;;;;;;;15.47;91.53;100859.16;5049991;28;20048;-72
2021/09/15 07:21:05;;;;;;;18.00;12.70;;;;;;;15.43;92.51;100843.59;5050295;28;20070;-73
2021/09/15 07:43:22;;;;;;;26.35;13.95;;;;;;;16.06;89.46;100847.31;5050652;28;20052;-72
2021/09/15 07:49:28;;;;;;;20.67;12.85;;;;;;;15.78;91.91;100847.25;5048849;28;20033;-72
2021/09/15 07:52:31;;;;;;;17.80;12.70;;;;;;;15.80;90.92;100839.81;5049963;28;20175;-72
2021/09/15 07:55:35;;;;;;;25.42;12.60;;;;;;;16.04;90.42;100843.97;5049214;28;20110;-72
2021/09/15 07:58:19;;;;;;;19.73;13.03;;;;;;;15.93;90.14;100839.94;5032175;28;20041;-72
2021/09/15 08:01:03;;;;;;;20.20;13.82;;;;;;;15.94;89.77;100844.28;5049922;28;20287;-72
2021/09/15 08:17:14;;;;;;;20.13;13.18;;;;;;;15.81;90.19;100857.66;5049911;28;20052;-72
2021/09/15 08:22:42;;;;;;;21.73;14.10;;;;;;;16.00;89.47;100862.38;5049353;28;20052;-72
2021/09/15 08:25:45;;;;;;;22.98;13.45;;;;;;;16.17;88.70;100865.59;5049517;28;20512;-72
2021/09/15 08:35:32;;;;;;;18.85;13.77;;;;;;;15.57;89.69;100888.47;5048937;28;20056;-71
2021/09/15 08:38:16;;;;;;;20.55;13.23;;;;;;;15.48;90.02;100884.25;5049194;28;20543;-72
2021/09/15 08:41:19;;;;;;;23.40;13.68;;;;;;;15.34;91.12;100888.63;5049266;28;20135;-72
2021/09/15 08:55:57;;;;;;;25.17;15.85;;;;;;;14.86;97.63;100899.00;5048591;28;20037;-72
2021/09/15 09:02:40;;;;;;;35.83;17.73;;;;;;;14.91;98.88;100894.75;5048992;28;20511;-73
2021/09/15 09:05:24;;;;;;;24.50;15.40;;;;;;;14.90;99.25;100903.84;5048434;28;20377;-73
2021/09/15 09:14:25;;;;;;;29.80;17.15;;;;;;;14.74;100.00;100910.22;5048368;28;20036;-73
2021/09/15 09:27:13;;;;;;;27.75;17.48;;;;;;;14.63;100.00;100921.44;5047315;28;20071;-75
2021/09/15 09:30:06;;;;;;;31.02;18.23;;;;;;;14.64;100.00;100914.22;5030782;28;20063;-75
2021/09/15 09:42:42;;;;;;;36.90;20.67;;;;;;;14.42;100.00;100897.13;5048014;28;20047;-76
2021/09/15 09:45:17;;;;;;;32.60;20.95;;;;;;;14.47;100.00;100900.09;5014354;28;20512;-75
2021/09/15 09:47:45;;;;;;;33.72;21.52;;;;;;;14.26;100.00;100898.16;5047957;28;20489;-76
2021/09/15 09:50:12;;;;;;;35.85;20.23;;;;;;;14.39;100.00;100898.31;5047708;28;20139;-77
2021/09/15 09:53:00;;;;;;;31.85;20.10;;;;;;;14.48;100.00;100896.41;5030464;28;20530;-75
2021/09/15 09:55:28;;;;;;;35.22;21.15;;;;;;;14.40;100.00;100889.28;5030725;28;20111;-75
2021/09/15 09:57:54;;;;;;;37.28;21.35;;;;;;;14.51;100.00;100894.16;5047903;28;20032;-74
2021/09/15 10:00:21;;;;;;;29.42;20.15;;;;;;;14.63;100.00;100875.75;5030544;28;20067;-74
2021/09/15 10:02:47;;;;;;;36.38;22.33;;;;;;;14.57;100.00;100874.66;5048728;28;20090;-73
2021/09/15 10:05:20;;;;;;;40.72;22.48;;;;;;;14.68;100.00;100862.63;5018211;28;20021;-74
2021/09/15 10:07:47;;;;;;;36.75;22.42;;;;;;;14.75;100.00;100863.53;5034435;28;20136;-74
2021/09/15 10:10:15;;;;;;;32.55;21.65;;;;;;;14.63;100.00;100864.19;5034030;28;20346;-74
2021/09/15 10:12:40;;;;;;;40.58;22.63;;;;;;;14.58;100.00;100856.69;5034330;28;20649;-74
2021/09/15 10:15:10;;;;;;;35.60;23.33;;;;;;;14.60;100.00;100865.38;5051652;28;20035;-74
2021/09/15 10:17:39;;;;;;;39.40;23.35;;;;;;;14.68;100.00;100859.94;5051936;28;20025;-74
2021/09/15 10:20:08;;;;;;;36.60;22.35;;;;;;;14.66;100.00;100858.47;5033900;28;20040;-74
2021/09/15 10:22:36;;;;;;;39.90;23.50;;;;;;;14.61;100.00;100844.72;5051911;28;20423;-74
2021/09/15 10:25:04;;;;;;;37.70;22.92;;;;;;;14.44;100.00;100844.88;5050472;28;20132;-74
2021/09/15 10:27:50;;;;;;;39.88;23.77;;;;;;;14.54;100.00;100858.91;5051785;28;20094;-74
2021/09/15 10:30:16;;;;;;;36.70;23.60;;;;;;;14.54;100.00;100852.72;5050080;28;20043;-74
2021/09/15 10:32:46;;;;;;;34.83;23.00;;;;;;;14.62;100.00;100844.53;5032890;28;20021;-73
2021/09/15 10:35:12;;;;;;;39.85;25.60;;;;;;;14.69;100.00;100839.25;5032559;28;20051;-74
2021/09/15 10:37:40;;;;;;;34.40;21.92;;;;;;;14.77;100.00;100840.00;5050213;28;20029;-74
2021/09/15 10:40:08;;;;;;;42.45;26.10;;;;;;;14.77;100.00;100840.00;5032388;28;20044;-74
2021/09/15 10:42:46;;;;;;;45.83;27.20;;;;;;;14.67;100.00;100828.69;5032839;28;20056;-74
2021/09/15 10:45:16;;;;;;;45.05;26.25;;;;;;;14.71;100.00;100832.69;5050452;28;20044;-74
2021/09/15 10:48:20;;;;;;;45.53;27.77;;;;;;;14.83;100.00;100832.19;5033596;28;20120;-74
2021/09/15 10:50:45;;;;;;;40.83;26.13;;;;;;;14.99;100.00;100826.59;5029582;28;20752;-75
2021/09/15 10:53:11;;;;;;;45.37;27.00;;;;;;;14.93;100.00;100825.50;5033705;28;20047;-75
2021/09/15 10:55:54;;;;;;;41.88;26.33;;;;;;;14.80;100.00;100811.91;5050879;28;20040;-75
2021/09/15 10:58:22;;;;;;;38.20;25.90;;;;;;;14.77;100.00;100807.75;5016904;28;20052;-75
2021/09/15 11:00:59;;;;;;;50.75;26.02;;;;;;;14.66;100.00;100818.97;5016853;28;20037;-74
2021/09/15 11:03:34;;;;;;;43.97;25.35;;;;;;;14.56;100.00;100821.09;5051116;28;20033;-74
2021/09/15 11:06:06;;;;;;;43.20;27.48;;;;;;;14.67;100.00;100828.69;5050513;28;20036;-75
2021/09/15 11:08:37;;;;;;;41.45;27.90;;;;;;;14.62;100.00;100817.69;5016695;28;20045;-74
2021/09/15 11:11:10;;;;;;;45.28;27.92;;;;;;;14.69;100.00;100821.28;5050632;28;20472;-75
2021/09/15 11:13:36;;;;;;;47.45;28.25;;;;;;;14.66;100.00;100828.91;5049905;28;20036;-75
2021/09/15 11:16:25;;;;;;;46.35;29.02;;;;;;;14.64;100.00;100826.38;5015949;28;20036;-75
2021/09/15 11:18:58;;;;;;;57.53;29.17;;;;;;;14.54;100.00;100821.31;5033061;28;20126;-76
2021/09/15 11:21:25;;;;;;;49.53;29.98;;;;;;;14.69;100.00;100815.91;5016526;28;20158;-75
2021/09/15 11:23:52;;;;;;;;;;;;;;;14.74;100.00;100813.47;5050907;28;20021;-75
2021/09/15 11:26:38;;;;;;;50.63;31.25;;;;;;;14.69;100.00;100810.53;5049410;28;20016;-75
2021/09/15 11:29:04;;;;;;;56.90;31.25;;;;;;;14.62;100.00;100812.31;5050231;28;20604;-75
2021/09/15 11:31:37;;;;;;;47.17;28.42;;;;;;;14.66;100.00;100815.47;5033112;28;20123;-75
2021/09/15 11:34:05;;;;;;;51.92;30.40;;;;;;;14.63;100.00;100815.81;5032285;28;20045;-75
2021/09/15 11:36:31;;;;;;;52.22;29.60;;;;;;;14.59;100.00;100814.53;5032819;28;20044;-75
2021/09/15 11:38:56;;;;;;;58.20;31.27;;;;;;;14.41;100.00;100806.84;5049907;28;20024;-74
2021/09/15 11:41:22;;;;;;;51.70;31.57;;;;;;;14.60;100.00;100795.53;5050379;28;20040;-77
2021/09/15 11:43:48;;;;;;;47.83;30.57;;;;;;;14.52;100.00;100790.25;5015943;28;20068;-76
2021/09/15 11:46:16;;;;;;;;;;;;;;;14.61;100.00;100796.34;5050381;28;20094;-75
2021/09/15 11:48:42;;;;;;;49.60;29.58;;;;;;;14.63;100.00;100794.31;5049592;28;19927;-76
2021/09/15 11:51:16;;;;;;;50.08;28.92;;;;;;;14.54;100.00;100793.63;5032828;28;20106;-75
2021/09/15 11:53:49;;;;;;;47.42;31.20;;;;;;;14.70;100.00;100795.22;5049829;28;20120;-75
2021/09/15 11:56:18;;;;;;;43.53;26.90;;;;;;;14.60;100.00;100787.47;5049820;28;20108;-75
2021/09/15 11:58:44;;;;;;;46.80;28.38;;;;;;;14.54;100.00;100785.56;5049381;28;20033;-75
2021/09/15 12:01:14;;;;;;;54.35;29.80;;;;;;;14.50;100.00;100789.59;5032300;28;20069;-75
2021/09/15 12:03:40;;;;;;;44.30;28.35;;;;;;;14.59;100.00;100783.13;5032105;28;20068;-75
2021/09/15 12:06:06;;;;;;;47.00;28.70;;;;;;;14.62;100.00;100784.59;5032131;28;20052;-75
2021/09/15 12:08:33;;;;;;;47.42;29.98;;;;;;;14.66;100.00;100783.22;5049584;28;20045;-75
2021/09/15 12:10:59;;;;;;;54.63;31.42;;;;;;;14.64;100.00;100787.94;5032064;28;20354;-75
2021/09/15 12:13:32;;;;;;;50.33;32.50;;;;;;;14.82;100.00;100782.13;5049578;28;20025;-75
2021/09/15 12:15:58;;;;;;;58.20;31.63;;;;;;;14.82;100.00;100783.00;5031501;28;20041;-75
2021/09/15 12:18:49;;;;;;;61.22;34.95;;;;;;;14.86;100.00;100784.25;5049439;28;20048;-79
2021/09/15 12:21:26;;;;;;;51.47;29.83;;;;;;;14.80;100.00;100771.59;5049272;28;20047;-79
2021/09/15 12:23:59;;;;;;;;;;;;;;;14.75;100.00;100782.09;5049914;28;20047;-77
2021/09/15 12:26:25;;;;;;;47.97;30.20;;;;;;;14.84;100.00;100778.25;5048108;28;19967;-76
2021/09/15 12:29:03;;;;;;;47.22;30.27;;;;;;;14.88;100.00;100776.03;5049293;28;20025;-77
2021/09/15 12:31:40;;;;;;;50.85;31.85;;;;;;;15.06;100.00;100778.28;5049202;28;20060;-77
2021/09/15 12:34:05;;;;;;;47.15;28.00;;;;;;;14.92;100.00;100767.38;5049025;28;20041;-77
2021/09/15 12:36:31;;;;;;;51.93;30.23;;;;;;;14.72;100.00;100769.84;5048949;28;20044;-76
2021/09/15 12:38:58;;;;;;;57.10;30.20;;;;;;;14.74;100.00;100770.47;5031441;28;20414;-78
2021/09/15 12:41:26;;;;;;;50.83;30.90;;;;;;;14.69;100.00;100772.09;5049053;28;20362;-78
2021/09/15 12:44:03;;;;;;;52.75;31.58;;;;;;;14.77;100.00;100769.28;5031679;28;20036;-78
2021/09/15 12:46:31;;;;;;;52.53;31.15;;;;;;;14.78;100.00;100766.41;5048737;28;20056;-77
2021/09/15 12:49:03;;;;;;;48.58;31.15;;;;;;;14.71;100.00;100770.88;5106031;27;20391;-77
2021/09/15 12:51:29;;;;;;;48.97;29.53;;;;;;;14.81;100.00;100756.31;5104989;28;20031;-77
2021/09/15 12:53:56;;;;;;;59.53;33.00;;;;;;;14.87;100.00;100763.63;5106231;28;20471;-77
2021/09/15 12:56:23;;;;;;;52.83;32.13;;;;;;;14.96;100.00;100757.06;5104728;28;20047;-78
2021/09/15 12:58:50;;;;;;;55.22;32.17;;;;;;;14.86;100.00;100751.19;5104152;28;20449;-78
2021/09/15 13:01:23;;;;;;;56.47;30.73;;;;;;;14.92;100.00;100745.06;5104675;28;20055;-77
2021/09/15 13:03:52;;;;;;;50.38;30.02;;;;;;;14.85;100.00;100744.16;5104596;28;20064;-77
2021/09/15 13:06:19;;;;;;;52.83;32.45;;;;;;;14.75;100.00;100745.28;5104503;28;20032;-77
2021/09/15 13:08:52;;;;;;;49.33;31.35;;;;;;;14.69;100.00;100747.91;5103335;28;20028;-77
2021/09/15 13:11:19;;;;;;;58.60;32.88;;;;;;;14.71;100.00;100741.31;5103642;28;20491;-77
2021/09/15 13:13:44;;;;;;;56.40;33.35;;;;;;;14.74;100.00;100748.16;5103441;28;20392;-77
2021/09/15 13:16:10;;;;;;;56.17;33.60;;;;;;;14.76;100.00;100728.13;5103448;28;20485;-78
2021/09/15 13:18:36;;;;;;;50.97;32.90;;;;;;;14.74;100.00;100732.84;5086302;28;20040;-77
2021/09/15 13:21:02;;;;;;;52.65;33.92;;;;;;;14.84;100.00;100729.03;5104488;28;20448;-78
2021/09/15 13:23:28;;;;;;;59.72;35.80;;;;;;;14.83;100.00;100722.00;5102540;28;20032;-78
2021/09/15 13:25:58;;;;;;;58.50;34.10;;;;;;;14.77;100.00;100718.22;5102618;28;20046;-78
2021/09/15 13:28:23;;;;;;;49.95;33.17;;;;;;;14.89;100.00;100715.84;5101962;28;20326;-77
2021/09/15 13:30:49;;;;;;;50.58;31.48;;;;;;;14.83;100.00;100713.94;5102879;28;20061;-77
2021/09/15 13:33:14;;;;;;;59.17;36.00;;;;;;;14.92;100.00;100719.00;5102809;28;20457;-77
2021/09/15 13:35:39;;;;;;;58.27;34.13;;;;;;;14.86;100.00;100713.56;5102103;28;20028;-79
2021/09/15 13:38:04;;;;;;;59.50;34.83;;;;;;;15.01;100.00;100708.97;5103315;28;20124;-76
2021/09/15 13:40:30;;;;;;;58.57;35.57;;;;;;;14.98;100.00;100693.19;5102788;28;20044;-78
2021/09/15 13:42:55;;;;;;;52.90;34.60;;;;;;;15.06;100.00;100692.25;5104150;28;20031;-78
2021/09/15 13:45:21;;;;;;;60.57;34.83;;;;;;;14.87;100.00;100688.34;5103615;28;20051;-77
2021/09/15 13:47:46;;;;;;;54.33;33.27;;;;;;;14.99;100.00;100689.50;5102762;28;20074;-78
2021/09/15 13:50:14;;;;;;;53.80;32.67;;;;;;;14.96;100.00;100681.78;5103431;28;20039;-78
2021/09/15 13:52:39;;;;;;;56.70;33.75;;;;;;;14.94;100.00;100675.81;5103015;28;20040;-77
2021/09/15 13:55:05;;;;;;;53.97;35.20;;;;;;;14.98;100.00;100675.22;5102493;28;20112;-77
2021/09/15 13:57:30;;;;;;;53.55;33.85;;;;;;;15.03;100.00;100677.34;5085713;28;20027;-76
2021/09/15 13:59:56;;;;;;;53.30;34.40;;;;;;;14.95;100.00;100670.22;5092502;28;20036;-77
2021/09/15 14:02:21;;;;;;;55.27;33.30;;;;;;;14.95;100.00;100675.59;5090132;28;20218;-77
2021/09/15 14:04:47;;;;;;;55.23;34.63;;;;;;;14.94;100.00;100665.06;5089974;28;20038;-77
2021/09/15 14:07:12;;;;;;;55.07;33.57;;;;;;;15.08;100.00;100672.22;5071791;28;20463;-77
2021/09/15 14:09:37;;;;;;;53.97;32.60;;;;;;;15.14;100.00;100665.22;5088741;28;20413;-77
2021/09/15 14:12:03;;;;;;;53.60;32.40;;;;;;;15.04;100.00;100665.53;5089804;28;20032;-77
2021/09/15 14:14:28;;;;;;;51.90;32.63;;;;;;;14.89;100.00;100664.78;5088715;28;20111;-77
2021/09/15 14:16:53;;;;;;;45.23;31.60;;;;;;;14.83;100.00;100671.75;5089456;28;20077;-77
2021/09/15 14:19:19;;;;;;;49.87;30.87;;;;;;;14.91;100.00;100668.09;5090147;28;20067;-78
2021/09/15 14:21:44;;;;;;;49.77;30.50;;;;;;;14.83;100.00;100668.25;5088846;28;20556;-77
2021/09/15 14:24:10;;;;;;;50.65;33.40;;;;;;;14.86;100.00;100668.69;5089741;28;20027;-77
2021/09/15 14:26:36;;;;;;;47.10;30.87;;;;;;;14.90;100.00;100659.22;5089767;28;20606;-77
2021/09/15 14:29:02;;;;;;;50.88;32.85;;;;;;;15.00;100.00;100661.56;5089512;28;20135;-79
2021/09/15 14:31:27;;;;;;;;;;;;;;;15.01;100.00;100665.94;5091128;28;20040;-77
2021/09/15 14:33:53;;;;;;;;;;;;;;;14.96;100.00;100662.97;5090416;28;19908;-77
2021/09/15 14:36:18;;;;;;;53.23;32.53;;;;;;;14.91;100.00;100652.84;5089731;28;19969;-78
2021/09/15 14:38:45;;;;;;;53.50;34.63;;;;;;;15.07;100.00;100662.47;5089120;28;20470;-77
2021/09/15 14:41:13;;;;;;;51.40;32.95;;;;;;;14.99;100.00;100649.16;5089146;28;20023;-78
2021/09/15 14:43:38;;;;;;;55.72;35.05;;;;;;;14.91;100.00;100651.97;5089475;28;20028;-77
2021/09/15 14:46:05;;;;;;;56.42;34.78;;;;;;;14.96;100.00;100647.72;5086754;28;20081;-77
2021/09/15 14:48:31;;;;;;;;;;;;;;;15.02;100.00;100653.31;5067516;28;20028;-77
2021/09/15 14:50:56;;;;;;;;;;;;;;;14.92;100.00;100653.66;5069153;28;19931;-77
2021/09/15 14:53:21;;;;;;;;;;;;;;;14.96;100.00;100644.16;5069495;28;19916;-77
2021/09/15 14:55:47;;;;;;;59.20;37.57;;;;;;;14.99;100.00;100643.78;5068797;28;19955;-77
2021/09/15 14:58:12;;;;;;;62.57;36.90;;;;;;;14.98;100.00;100636.75;5052018;28;20453;-77
2021/09/15 15:00:38;;;;;;;67.10;38.03;;;;;;;14.92;100.00;100642.91;5069659;28;20043;-77
2021/09/15 15:03:03;;;;;;;61.87;41.30;;;;;;;14.92;100.00;100637.53;5062895;28;20062;-77
2021/09/15 15:05:28;;;;;;;73.83;44.20;;;;;;;14.88;100.00;100649.69;5068832;28;20380;-78
2021/09/15 15:07:54;;;;;;;67.43;42.27;;;;;;;14.84;100.00;100643.84;5067268;28;20090;-77
2021/09/15 15:10:19;;;;;;;70.80;45.73;;;;;;;14.87;100.00;100648.03;5051006;28;20275;-77
2021/09/15 15:12:45;;;;;;;75.77;43.47;;;;;;;14.90;100.00;100650.34;5052018;28;20032;-77
2021/09/15 15:15:12;;;;;;;82.35;47.45;;;;;;;15.03;100.00;100654.97;5051463;28;20064;-77
2021/09/15 15:17:38;;;;;;;75.95;43.88;;;;;;;15.09;100.00;100657.72;5049672;28;20117;-76
2021/09/15 15:20:05;;;;;;;75.75;44.78;;;;;;;15.14;100.00;100651.75;5065163;28;20017;-77
2021/09/15 15:22:33;;;;;;;65.40;39.92;;;;;;;15.35;100.00;100646.34;5065476;28;20040;-76
2021/09/15 15:25:04;;;;;;;71.03;44.47;;;;;;;15.55;100.00;100649.16;5048272;28;20104;-77
2021/09/15 15:27:30;;;;;;;66.95;44.08;;;;;;;15.59;100.00;100645.06;5048547;28;20504;-78
2021/09/15 15:29:57;;;;;;;71.85;42.53;;;;;;;15.52;100.00;100649.56;5049265;28;20071;-77
2021/09/15 15:32:25;;;;;;;73.60;43.83;;;;;;;15.35;100.00;100648.19;5048622;28;20481;-77
2021/09/15 15:34:50;;;;;;;73.00;42.78;;;;;;;15.33;100.00;100650.25;5049217;28;20029;-77
2021/09/15 15:37:15;;;;;;;73.23;43.57;;;;;;;15.38;100.00;100662.09;5048424;28;20477;-76
2021/09/15 15:39:41;;;;;;;76.73;45.10;;;;;;;15.36;100.00;100660.63;5062527;28;20111;-76
2021/09/15 15:42:06;;;;;;;71.87;45.67;;;;;;;15.30;100.00;100673.00;5067960;28;20040;-77
2021/09/15 15:44:31;;;;;;;78.90;45.50;;;;;;;15.23;100.00;100663.22;5067895;28;20024;-77
2021/09/15 15:46:57;;;;;;;80.63;46.57;;;;;;;15.19;100.00;100660.06;5067900;28;20037;-77
2021/09/15 15:49:22;;;;;;;71.27;43.10;;;;;;;15.32;100.00;100660.19;5069050;28;20044;-77
2021/09/15 15:51:47;;;;;;;79.77;46.23;;;;;;;15.24;100.00;100659.50;5069034;28;20041;-77
2021/09/15 15:54:13;;;;;;;76.77;45.30;;;;;;;15.23;100.00;100666.72;5068888;28;20250;-76
2021/09/15 15:56:38;;;;;;;77.97;46.93;;;;;;;15.19;100.00;100670.84;5066998;28;20040;-77
2021/09/15 15:59:04;;;;;;;84.72;47.55;;;;;;;15.20;100.00;100667.97;5067639;28;20116;-76
2021/09/15 16:01:30;;;;;;;94.07;50.83;;;;;;;15.19;100.00;100660.06;5068921;28;20136;-76
2021/09/15 16:03:55;;;;;;;87.27;50.90;;;;;;;15.28;100.00;100650.84;5067735;28;20048;-77
2021/09/15 16:06:21;;;;;;;92.57;53.23;;;;;;;15.35;100.00;100653.56;5050760;28;20044;-76
2021/09/15 16:08:47;;;;;;;87.75;49.42;;;;;;;15.44;100.00;100640.81;5068238;28;20028;-76
2021/09/15 16:11:12;;;;;;;95.28;53.42;;;;;;;15.32;100.00;100641.34;5068761;28;20040;-76
2021/09/15 16:13:38;;;;;;;80.28;50.83;;;;;;;15.39;100.00;100638.72;5068891;28;20138;-75
2021/09/15 16:16:03;;;;;;;79.77;47.90;;;;;;;15.44;100.00;100651.56;5068547;28;20119;-76
2021/09/15 16:18:29;;;;;;;91.43;53.92;;;;;;;15.36;100.00;100644.50;5067704;28;20453;-75
2021/09/15 16:20:54;;;;;;;83.60;50.47;;;;;;;15.40;100.00;100641.22;5067427;28;20040;-75
2021/09/15 16:23:20;;;;;;;88.80;52.20;;;;;;;15.34;100.00;100635.78;5067670;28;20111;-75
2021/09/15 16:25:45;;;;;;;88.65;51.47;;;;;;;15.35;100.00;100637.44;5068688;28;20530;-74
2021/09/15 16:28:11;;;;;;;89.97;51.33;;;;;;;15.44;100.00;100630.88;5068510;28;20400;-75
2021/09/15 16:30:36;;;;;;;98.20;56.13;;;;;;;15.44;100.00;100630.88;5068466;28;20033;-75
2021/09/15 16:33:02;;;;;;;96.80;54.73;;;;;;;15.50;100.00;100630.09;5067286;28;20047;-75
2021/09/15 16:35:29;;;;;;;97.50;53.30;;;;;;;15.45;100.00;100623.63;5067502;28;20040;-76
2021/09/15 16:37:55;;;;;;;97.57;56.15;;;;;;;15.43;100.00;100620.31;5049281;28;20123;-75
2021/09/15 16:40:20;;;;;;;98.13;54.05;;;;;;;15.45;100.00;100632.53;5049045;28;20046;-75
2021/09/15 16:42:45;;;;;;;103.30;55.10;;;;;;;15.48;100.00;100623.25;5067093;28;20040;-75
2021/09/15 16:45:11;;;;;;;95.33;56.33;;;;;;;15.59;100.00;100620.84;5067337;28;20044;-75
2021/09/15 16:47:37;;;;;;;91.80;50.53;;;;;;;15.54;100.00;100620.59;5066593;28;20037;-75
2021/09/15 16:50:05;;;;;;;100.47;53.63;;;;;;;15.50;100.00;100611.28;5065890;28;20048;-75
2021/09/15 16:52:30;;;;;;;99.13;54.42;;;;;;;15.51;100.00;100615.59;5049137;28;20506;-75
2021/09/15 16:54:55;;;;;;;97.63;54.07;;;;;;;15.43;100.00;100614.94;5065004;28;20087;-75
2021/09/15 16:57:21;;;;;;;82.17;50.13;;;;;;;15.51;100.00;100617.47;5064644;28;20071;-75